Adrian, Michigan
Current Conditions -  °F | °C
As of 12:53 PM on Friday 19 Dec 2014 (Local Time) from KADG Reporting Station
Overcast Overcast  
Wind Chill: -2°   Ceiling: 1800
Heat Index: -2°   Visibility: 10mi
Dew Point: -4°   Wind: 0mph
Humidity: 82%   Direction: NA
Pressure: 30.26"   Gusts: NA
Location:  41.9°N, 84.04°W
Report Text: KADG 191753Z AUTO 00000KT 10SM OVC018 M02/M04 A3026 RMK AO2 SLP260 T10171044 11017 21022 50000 $
Loading
Personal Weather Stations






























Interactive Weather Map New forecast layout! Learn more

10-Day Weather Forecast

Advertisements
Track Severe Weather on mobile